Time;durP1;ratioP1;P1;durP2;ratioP2;P2;SDS_P1;SDS_P2;PMS_P1;PMS_P2;Temp;Humidity;BMP_temperature;BMP_pressure;BME280_temperature;BME280_humidity;BME280_pressure;Samples;Min_cycle;Max_cycle;Signal;HPM_P1;HPM_P2
2022/05/21 00:00:56;;;;;;;11.45;6.28;;;9.90;99.90;;;;;;5056213;28;20056;-43
2022/05/21 00:03:22;;;;;;;14.20;6.22;;;10.00;99.90;;;;;;5055924;28;20041;-46
2022/05/21 00:05:50;;;;;;;12.38;7.50;;;11.80;99.90;;;;;;5055926;28;20036;-48
2022/05/21 00:08:16;;;;;;;13.32;6.60;;;10.40;99.90;;;;;;5054672;28;20391;-44
2022/05/21 00:10:42;;;;;;;13.00;7.10;;;10.10;99.90;;;;;;5055992;28;20039;-43
2022/05/21 00:13:08;;;;;;;14.27;6.82;;;10.10;99.90;;;;;;5055915;28;20067;-46
2022/05/21 00:15:35;;;;;;;18.85;8.07;;;10.10;99.90;;;;;;5055940;28;20125;-46
2022/05/21 00:18:01;;;;;;;15.25;8.15;;;10.20;99.90;;;;;;5054350;28;20090;-44
2022/05/21 00:20:47;;;;;;;16.67;8.18;;;11.90;99.90;;;;;;5055214;28;20596;-45
2022/05/21 00:23:20;;;;;;;20.35;8.07;;;11.40;99.90;;;;;;5056258;28;20484;-49
2022/05/21 00:25:47;;;;;;;18.15;8.27;;;10.60;99.90;;;;;;5055172;28;20032;-43
2022/05/21 00:28:14;;;;;;;18.60;8.40;;;11.20;99.90;;;;;;5056144;28;20045;-48
2022/05/21 00:30:40;;;;;;;20.50;9.43;;;11.30;99.90;;;;;;5055068;28;20090;-45
2022/05/21 00:33:08;;;;;;;14.75;9.77;;;11.30;99.90;;;;;;5049854;28;20135;-45
2022/05/21 00:35:34;;;;;;;22.52;10.70;;;10.20;99.90;;;;;;5054960;28;20047;-47
2022/05/21 00:38:00;;;;;;;21.85;11.77;;;10.20;99.90;;;;;;5054715;28;20128;-45
2022/05/21 00:40:29;;;;;;;19.25;12.10;;;10.80;99.90;;;;;;5054532;28;20400;-50
2022/05/21 00:42:54;;;;;;;27.65;13.75;;;10.20;99.90;;;;;;5055055;28;20067;-47
2022/05/21 00:45:20;;;;;;;23.73;13.65;;;10.50;99.90;;;;;;5055632;28;20037;-46
2022/05/21 00:47:48;;;;;;;25.77;15.30;;;10.40;99.90;;;;;;5055471;28;20086;-45
2022/05/21 00:50:17;;;;;;;38.80;16.40;;;10.50;99.90;;;;;;5055415;28;20428;-44
2022/05/21 00:52:44;;;;;;;24.50;14.20;;;10.60;99.90;;;;;;5055677;28;20124;-43
2022/05/21 00:55:14;;;;;;;26.95;14.75;;;10.60;99.90;;;;;;5054686;28;20043;-45
2022/05/21 00:57:48;;;;;;;29.40;15.20;;;10.60;99.90;;;;;;5054548;28;20119;-45
2022/05/21 01:00:21;;;;;;;24.13;12.52;;;10.60;99.90;;;;;;5054780;28;20032;-44
2022/05/21 01:02:54;;;;;;;20.77;13.15;;;10.60;99.90;;;;;;5056456;28;20040;-49
2022/05/21 01:05:24;;;;;;;25.67;12.88;;;11.60;99.90;;;;;;5055748;28;20321;-45
2022/05/21 01:07:53;;;;;;;26.70;13.25;;;10.60;99.90;;;;;;5055220;28;20343;-46
2022/05/21 01:10:21;;;;;;;24.48;13.15;;;10.50;99.90;;;;;;5055040;28;20405;-44
2022/05/21 01:12:50;;;;;;;23.90;14.88;;;10.60;99.90;;;;;;5054933;28;20115;-46
2022/05/21 01:15:27;;;;;;;28.17;15.63;;;11.50;99.90;;;;;;5049671;28;20072;-47
2022/05/21 01:17:53;;;;;;;27.45;16.33;;;10.70;99.90;;;;;;5054563;28;20052;-47
2022/05/21 01:20:36;;;;;;;27.15;17.63;;;10.60;99.90;;;;;;5049113;28;20071;-44
2022/05/21 01:23:02;;;;;;;33.88;17.70;;;10.60;99.90;;;;;;5054597;28;20052;-47
2022/05/21 01:25:29;;;;;;;32.05;19.23;;;10.80;99.90;;;;;;5054483;28;20048;-45
2022/05/21 01:27:55;;;;;;;33.38;19.75;;;11.70;99.90;;;;;;5053189;28;20159;-47
2022/05/21 01:30:28;;;;;;;34.38;19.17;;;10.90;99.90;;;;;;5051614;28;20082;-47
2022/05/21 01:32:54;;;;;;;29.83;19.20;;;10.90;99.90;;;;;;5053783;28;20053;-45
2022/05/21 01:35:20;;;;;;;30.85;20.63;;;11.00;99.90;;;;;;5053643;28;20699;-44
2022/05/21 01:37:47;;;;;;;34.85;20.17;;;11.00;99.90;;;;;;5054169;28;20763;-45
2022/05/21 01:40:14;;;;;;;34.58;20.55;;;11.00;99.90;;;;;;5054358;28;20059;-49
2022/05/21 01:42:42;;;;;;;36.33;20.88;;;11.40;99.90;;;;;;5052974;28;20064;-47
2022/05/21 01:45:08;;;;;;;32.85;21.10;;;10.90;99.90;;;;;;5054347;28;20724;-45
2022/05/21 01:47:41;;;;;;;39.58;22.77;;;11.10;99.90;;;;;;5054251;28;20416;-49
2022/05/21 01:50:08;;;;;;;38.47;22.27;;;10.90;99.90;;;;;;5053241;28;20516;-46
2022/05/21 01:52:34;;;;;;;32.78;21.60;;;11.20;99.90;;;;;;5053392;28;20044;-47
2022/05/21 01:54:59;;;;;;;34.15;22.50;;;12.10;99.90;;;;;;5053318;28;20080;-49
2022/05/21 01:57:27;;;;;;;36.33;23.25;;;12.40;99.90;;;;;;5053684;28;20044;-49
2022/05/21 01:59:53;;;;;;;36.85;22.98;;;11.50;99.90;;;;;;5053045;28;20036;-49
2022/05/21 02:02:19;;;;;;;42.17;21.92;;;12.80;99.90;;;;;;5054383;28;20036;-48
2022/05/21 02:04:44;;;;;;;32.38;20.40;;;11.30;99.90;;;;;;5052915;28;20414;-48
2022/05/21 02:07:10;;;;;;;34.78;20.17;;;11.40;99.90;;;;;;5052729;28;20043;-48
2022/05/21 02:09:36;;;;;;;35.67;18.02;;;13.50;99.90;;;;;;5052522;28;20130;-48
2022/05/21 02:12:04;;;;;;;33.20;18.38;;;11.90;99.90;;;;;;5054872;28;20131;-47
2022/05/21 02:14:29;;;;;;;35.00;15.68;;;11.70;99.90;;;;;;5053941;28;20052;-51
2022/05/21 02:16:55;;;;;;;36.40;16.20;;;13.30;99.90;;;;;;5054497;28;20420;-50
2022/05/21 02:19:21;;;;;;;30.25;15.05;;;11.80;99.90;;;;;;5054213;28;20499;-47
2022/05/21 02:21:48;;;;;;;34.47;14.15;;;12.70;99.90;;;;;;5053904;28;20497;-47
2022/05/21 02:24:14;;;;;;;28.73;12.77;;;13.20;99.90;;;;;;5053280;28;20040;-49
2022/05/21 02:26:40;;;;;;;29.02;11.45;;;12.10;99.90;;;;;;5053974;28;20527;-47
2022/05/21 02:29:08;;;;;;;28.73;11.65;;;12.20;99.90;;;;;;5053943;28;20402;-50
2022/05/21 02:31:34;;;;;;;33.20;13.13;;;12.30;99.90;;;;;;5052606;28;20409;-49
2022/05/21 02:33:59;;;;;;;28.33;11.35;;;12.80;99.90;;;;;;5052215;28;20052;-47
2022/05/21 02:39:25;;;;;;;25.17;11.00;;;13.00;99.90;;;;;;5052868;28;20109;-44
2022/05/21 02:41:52;;;;;;;23.83;9.10;;;12.30;99.90;;;;;;5052020;28;20047;-48
2022/05/21 02:44:19;;;;;;;25.67;8.77;;;12.70;99.90;;;;;;5052762;28;20714;-47
2022/05/21 02:46:44;;;;;;;27.13;9.05;;;12.40;99.90;;;;;;5052475;28;20254;-46
2022/05/21 02:49:10;;;;;;;22.65;8.15;;;12.30;99.90;;;;;;5053325;28;20040;-46
2022/05/21 02:51:36;;;;;;;27.10;9.07;;;12.20;99.90;;;;;;5052849;28;20040;-46
2022/05/21 02:54:01;;;;;;;26.70;7.95;;;13.00;99.90;;;;;;5052569;28;20048;-47
2022/05/21 02:56:27;;;;;;;30.52;8.02;;;12.30;99.90;;;;;;5051504;28;20108;-44
2022/05/21 02:58:53;;;;;;;30.83;7.43;;;13.00;99.90;;;;;;5052724;28;20118;-49
2022/05/21 03:01:18;;;;;;;28.73;7.78;;;12.90;99.90;;;;;;5052035;28;20067;-50
2022/05/21 03:03:44;;;;;;;28.40;8.10;;;12.30;99.90;;;;;;5051423;28;20402;-50
2022/05/21 03:06:10;;;;;;;19.90;6.13;;;12.20;99.90;;;;;;5052502;28;20450;-44
2022/05/21 03:11:19;;;;;;;27.60;7.80;;;13.10;99.90;;;;;;5051854;28;20127;-46
2022/05/21 03:13:45;;;;;;;25.50;6.97;;;12.50;99.90;;;;;;5052685;28;20040;-45
2022/05/21 03:16:11;;;;;;;22.23;6.05;;;12.30;99.90;;;;;;5053443;28;20039;-47
2022/05/21 03:18:37;;;;;;;26.25;6.05;;;12.70;99.90;;;;;;5052506;28;20040;-47
2022/05/21 03:21:02;;;;;;;20.05;5.53;;;12.30;99.90;;;;;;5052683;28;20366;-48
2022/05/21 03:23:28;;;;;;;21.30;5.22;;;12.30;99.90;;;;;;5050867;28;20392;-48
2022/05/21 03:25:54;;;;;;;30.23;6.10;;;13.00;99.90;;;;;;5053174;28;20059;-46
2022/05/21 03:28:20;;;;;;;19.15;5.70;;;14.20;99.90;;;;;;5052642;28;20203;-45
2022/05/21 03:30:47;;;;;;;24.17;6.38;;;12.50;99.90;;;;;;5050307;28;20040;-50
2022/05/21 03:33:13;;;;;;;28.20;6.57;;;13.10;99.90;;;;;;5052061;28;20283;-44
2022/05/21 03:35:41;;;;;;;22.13;4.80;;;12.40;99.90;;;;;;5052987;28;20118;-50
2022/05/21 03:38:07;;;;;;;22.10;4.82;;;12.50;99.90;;;;;;5053804;28;20049;-49
2022/05/21 03:40:34;;;;;;;20.65;4.05;;;12.60;99.90;;;;;;5053006;28;20048;-44
2022/05/21 03:42:59;;;;;;;23.50;5.50;;;12.40;99.90;;;;;;5051714;28;20072;-44
2022/05/21 03:45:26;;;;;;;28.40;4.80;;;13.30;99.90;;;;;;5052700;28;20468;-45
2022/05/21 03:47:54;;;;;;;19.65;5.20;;;12.50;99.90;;;;;;5054237;28;20036;-45
2022/05/21 03:50:23;;;;;;;21.52;4.82;;;13.00;99.90;;;;;;5052898;28;20040;-43
2022/05/21 03:52:49;;;;;;;18.83;5.00;;;12.60;99.90;;;;;;5051630;28;20048;-44
2022/05/21 03:55:15;;;;;;;18.90;4.65;;;13.10;99.90;;;;;;5052707;28;20040;-44
2022/05/21 03:57:41;;;;;;;20.58;4.70;;;12.60;99.90;;;;;;5053977;28;20152;-46
2022/05/21 04:00:10;;;;;;;18.75;4.20;;;12.60;99.90;;;;;;5056536;28;20131;-48
2022/05/21 04:02:38;;;;;;;18.27;3.70;;;12.50;99.90;;;;;;5054382;28;20584;-50
2022/05/21 04:05:07;;;;;;;20.63;4.40;;;12.70;99.90;;;;;;5054881;28;20072;-44
2022/05/21 04:07:33;;;;;;;15.45;3.78;;;12.60;99.90;;;;;;5055731;28;20054;-44
2022/05/21 04:09:59;;;;;;;13.73;3.55;;;12.70;99.90;;;;;;5057123;28;20044;-46
2022/05/21 04:12:24;;;;;;;15.23;4.18;;;12.70;99.90;;;;;;5055320;28;20039;-44
2022/05/21 04:14:50;;;;;;;18.23;4.03;;;12.70;99.90;;;;;;5055842;28;20036;-46
2022/05/21 04:17:16;;;;;;;19.77;3.72;;;14.90;99.90;;;;;;5056721;28;20045;-46
2022/05/21 04:19:45;;;;;;;20.67;3.92;;;12.80;99.90;;;;;;5056047;28;20036;-44
2022/05/21 04:22:11;;;;;;;21.88;3.55;;;12.60;99.90;;;;;;5055039;28;20035;-49
2022/05/21 04:24:37;;;;;;;18.05;3.78;;;13.50;99.90;;;;;;5053761;28;20044;-48
2022/05/21 04:27:07;;;;;;;23.83;4.63;;;13.10;99.90;;;;;;5056128;28;20601;-46
2022/05/21 04:29:34;;;;;;;17.17;3.83;;;12.70;99.90;;;;;;5055311;28;21939;-48
2022/05/21 04:32:00;;;;;;;16.90;4.43;;;14.00;99.90;;;;;;5056130;28;20049;-47
2022/05/21 04:34:28;;;;;;;17.60;3.47;;;14.70;99.90;;;;;;5056015;28;20113;-47
2022/05/21 04:36:53;;;;;;;21.30;3.78;;;12.60;99.90;;;;;;5054702;28;20048;-47
2022/05/21 04:39:19;;;;;;;20.38;3.70;;;12.50;99.90;;;;;;5055488;28;20082;-45
2022/05/21 04:41:45;;;;;;;18.67;4.50;;;12.60;99.90;;;;;;5055394;28;20032;-44
2022/05/21 04:44:11;;;;;;;15.43;3.70;;;12.50;99.90;;;;;;5054760;28;20040;-48
2022/05/21 04:46:37;;;;;;;15.23;4.35;;;12.60;99.90;;;;;;5054834;28;20044;-50
2022/05/21 04:49:03;;;;;;;18.80;3.38;;;14.30;99.90;;;;;;5056344;28;20045;-44
2022/05/21 04:51:31;;;;;;;15.43;3.00;;;14.50;99.90;;;;;;5055189;28;20091;-44
2022/05/21 04:53:57;;;;;;;11.43;3.20;;;12.80;99.90;;;;;;5054353;28;20067;-49
2022/05/21 04:56:23;;;;;;;21.20;3.67;;;12.80;99.90;;;;;;5055116;28;20044;-47
2022/05/21 04:58:49;;;;;;;19.08;4.57;;;12.80;99.90;;;;;;5056283;28;20044;-47
2022/05/21 05:01:14;;;;;;;11.30;2.50;;;12.80;99.90;;;;;;5055113;28;20052;-45
2022/05/21 05:03:40;;;;;;;16.45;3.22;;;12.80;99.90;;;;;;5055313;28;20037;-47
2022/05/21 05:06:08;;;;;;;16.60;3.40;;;12.70;99.90;;;;;;5054831;28;20055;-46
2022/05/21 05:08:35;;;;;;;16.27;2.85;;;12.80;99.90;;;;;;5054739;28;20041;-44
2022/05/21 05:11:00;;;;;;;10.00;2.35;;;12.90;99.90;;;;;;5052800;28;20044;-46
2022/05/21 05:13:29;;;;;;;15.60;2.85;;;13.00;99.90;;;;;;5054920;28;20059;-45
2022/05/21 05:15:55;;;;;;;12.55;3.13;;;12.80;99.90;;;;;;5054715;28;20120;-47
2022/05/21 05:18:21;;;;;;;15.18;2.80;;;13.10;99.90;;;;;;5055639;28;20123;-46
2022/05/21 05:20:49;;;;;;;15.48;2.75;;;11.70;99.90;;;;;;5055573;28;20046;-46
2022/05/21 05:23:16;;;;;;;19.17;3.13;;;13.10;99.90;;;;;;5051650;28;20040;-45
2022/05/21 05:25:42;;;;;;;16.70;4.07;;;13.90;99.90;;;;;;5053688;28;20553;-46
2022/05/21 05:28:20;;;;;;;11.55;2.83;;;13.60;99.90;;;;;;5053518;28;20052;-45
2022/05/21 05:30:49;;;;;;;13.65;3.15;;;13.70;99.90;;;;;;5051758;28;20044;-47
2022/05/21 05:33:16;;;;;;;14.85;2.80;;;13.70;99.90;;;;;;5052762;28;20080;-46
2022/05/21 05:35:42;;;;;;;13.20;2.72;;;13.30;99.90;;;;;;5053129;28;20071;-48
2022/05/21 05:38:11;;;;;;;14.25;3.50;;;13.30;99.90;;;;;;5054820;28;20044;-44
2022/05/21 05:40:39;;;;;;;14.63;3.25;;;14.80;99.90;;;;;;5054274;28;20040;-46
2022/05/21 05:43:06;;;;;;;15.07;2.80;;;13.30;99.90;;;;;;5053808;28;20471;-47
2022/05/21 05:45:33;;;;;;;14.60;2.67;;;13.50;99.90;;;;;;5052139;28;20500;-44
2022/05/21 05:47:59;;;;;;;15.45;3.40;;;13.50;99.90;;;;;;5052747;28;20374;-45
2022/05/21 05:50:25;;;;;;;13.45;2.45;;;13.50;99.90;;;;;;5053646;28;20101;-49
2022/05/21 05:52:51;;;;;;;14.45;2.50;;;15.20;99.90;;;;;;5052374;28;20075;-45
2022/05/21 05:55:17;;;;;;;15.10;2.80;;;13.60;99.90;;;;;;5053740;28;20029;-46
2022/05/21 05:57:42;;;;;;;17.15;2.75;;;13.70;99.90;;;;;;5052467;28;20055;-49
2022/05/21 06:00:10;;;;;;;14.85;3.00;;;13.70;99.90;;;;;;5052907;28;20056;-46
2022/05/21 06:05:24;;;;;;;13.10;2.55;;;13.50;99.90;;;;;;5053464;28;20601;-47
2022/05/21 06:07:55;;;;;;;13.48;2.42;;;13.60;99.90;;;;;;5053655;28;20135;-47
2022/05/21 06:10:37;;;;;;;19.00;3.50;;;14.00;99.90;;;;;;5052501;28;20033;-48
2022/05/21 06:13:05;;;;;;;15.35;2.80;;;13.90;99.90;;;;;;5052423;28;20097;-49
2022/05/21 06:15:32;;;;;;;14.68;3.20;;;14.00;99.90;;;;;;5051306;28;20043;-49
2022/05/21 06:17:58;;;;;;;13.05;2.63;;;15.00;99.90;;;;;;5052494;28;20151;-46
2022/05/21 06:20:27;;;;;;;11.48;2.65;;;14.50;99.90;;;;;;5051631;28;20126;-46
2022/05/21 06:22:55;;;;;;;13.60;2.90;;;14.40;99.90;;;;;;5051138;28;20040;-51
2022/05/21 06:25:23;;;;;;;15.48;2.83;;;14.20;99.90;;;;;;5053030;28;20119;-49
2022/05/21 06:27:50;;;;;;;16.80;2.80;;;14.20;99.90;;;;;;5052468;28;20127;-51
2022/05/21 06:30:18;;;;;;;16.58;3.17;;;14.40;99.90;;;;;;5051882;28;20175;-49
2022/05/21 06:32:43;;;;;;;9.95;2.47;;;14.60;99.90;;;;;;5051464;28;20056;-48
2022/05/21 06:35:10;;;;;;;14.02;2.58;;;15.40;99.90;;;;;;5053445;28;21139;-46
2022/05/21 06:37:37;;;;;;;16.13;3.15;;;15.20;99.90;;;;;;5050383;28;20131;-48
2022/05/21 06:40:05;;;;;;;16.40;3.17;;;14.80;99.90;;;;;;5052955;28;20088;-50
2022/05/21 06:42:31;;;;;;;14.07;2.55;;;15.00;99.90;;;;;;5053159;28;20051;-50
2022/05/21 06:44:57;;;;;;;15.18;2.30;;;15.30;99.90;;;;;;5052669;28;20082;-50
2022/05/21 06:47:24;;;;;;;17.02;3.08;;;16.50;99.90;;;;;;5052199;28;20047;-49
2022/05/21 06:49:58;;;;;;;14.48;2.60;;;16.30;99.90;;;;;;5050922;28;20076;-50
2022/05/21 06:52:25;;;;;;;14.13;2.50;;;16.30;99.90;;;;;;5052388;28;20127;-51
2022/05/21 06:54:53;;;;;;;10.32;2.28;;;18.30;99.90;;;;;;5053129;28;20082;-51
2022/05/21 06:57:19;;;;;;;10.02;2.15;;;17.30;99.90;;;;;;5053264;28;20043;-50
2022/05/21 06:59:46;;;;;;;15.05;2.92;;;20.00;99.90;;;;;;5052245;28;20439;-46
2022/05/21 07:02:13;;;;;;;15.98;3.55;;;19.60;99.90;;;;;;5051262;28;20053;-50
2022/05/21 07:07:32;;;;;;;16.50;3.08;;;22.30;99.90;;;;;;5054108;28;20075;-50
2022/05/21 07:10:07;;;;;;;11.40;3.25;;;20.70;99.90;;;;;;5053405;28;20131;-52
2022/05/21 07:12:35;;;;;;;15.88;2.97;;;18.30;99.90;;;;;;5050761;28;20147;-52
2022/05/21 07:15:03;;;;;;;13.57;3.00;;;18.00;99.90;;;;;;5053688;28;20032;-51
2022/05/21 07:17:29;;;;;;;11.65;2.47;;;18.60;99.90;;;;;;5053087;28;20157;-49
2022/05/21 07:19:56;;;;;;;14.18;2.50;;;18.60;99.90;;;;;;5052522;28;20123;-54
2022/05/21 07:22:22;;;;;;;14.63;3.20;;;19.00;99.90;;;;;;5051166;28;20043;-50
2022/05/21 07:24:48;;;;;;;15.35;2.58;;;18.20;99.90;;;;;;5051190;28;20052;-52
2022/05/21 07:27:16;;;;;;;10.50;2.30;;;19.40;99.90;;;;;;5052560;28;20149;-46
2022/05/21 07:29:44;;;;;;;13.60;2.50;;;19.00;99.90;;;;;;5051507;28;20041;-46
2022/05/21 07:32:18;;;;;;;15.75;2.95;;;16.80;99.90;;;;;;5052178;28;20745;-52
2022/05/21 07:34:44;;;;;;;15.02;2.72;;;16.70;99.90;;;;;;5056221;28;20862;-51
2022/05/21 07:37:10;;;;;;;17.38;2.75;;;16.50;99.90;;;;;;5055293;28;20101;-49
2022/05/21 07:39:36;;;;;;;12.10;2.28;;;18.30;99.90;;;;;;5056337;28;20048;-49
2022/05/21 07:42:02;;;;;;;13.93;2.50;;;18.40;99.90;;;;;;5054900;28;20037;-48
2022/05/21 07:44:27;;;;;;;12.65;3.35;;;19.30;99.90;;;;;;5055580;28;20060;-50
2022/05/21 07:46:55;;;;;;;13.90;2.72;;;20.20;99.90;;;;;;5054472;28;20427;-51
2022/05/21 07:49:23;;;;;;;10.57;2.72;;;21.00;99.90;;;;;;5055624;28;20810;-50
2022/05/21 07:51:49;;;;;;;13.52;2.72;;;20.40;99.90;;;;;;5055481;28;20450;-52
2022/05/21 07:54:16;;;;;;;14.50;2.40;;;20.60;99.90;;;;;;5056369;28;20047;-52
2022/05/21 07:56:42;;;;;;;14.00;3.72;;;20.30;99.90;;;;;;5055554;28;20062;-47
2022/05/21 07:59:07;;;;;;;13.75;2.55;;;19.50;99.90;;;;;;5055061;28;20041;-49
2022/05/21 08:01:33;;;;;;;14.40;2.78;;;18.90;99.90;;;;;;5053668;28;20090;-49
2022/05/21 08:03:59;;;;;;;14.00;2.65;;;19.20;99.90;;;;;;5054141;28;21700;-46
2022/05/21 08:06:24;;;;;;;13.35;2.33;;;18.90;99.90;;;;;;5056357;28;20041;-48
2022/05/21 08:08:54;;;;;;;11.88;2.20;;;18.20;99.90;;;;;;5055775;28;20064;-46
2022/05/21 08:11:20;;;;;;;14.68;2.60;;;17.90;99.90;;;;;;5055390;28;20409;-48
2022/05/21 08:13:50;;;;;;;12.63;2.40;;;18.10;99.90;;;;;;5055492;28;20413;-51
2022/05/21 08:16:16;;;;;;;15.93;3.15;;;18.10;99.90;;;;;;5055534;28;20416;-48
2022/05/21 08:18:42;;;;;;;13.27;2.35;;;18.50;99.90;;;;;;5056419;28;20040;-49
2022/05/21 08:21:08;;;;;;;12.07;2.47;;;18.60;99.90;;;;;;5056962;28;20079;-52
2022/05/21 08:29:07;;;;;;;20.52;2.95;;;17.90;99.90;;;;;;5054796;28;20051;-50
2022/05/21 08:31:33;;;;;;;9.80;2.00;;;17.30;99.90;;;;;;5053535;28;20098;-49
2022/05/21 08:34:00;;;;;;;16.90;3.22;;;19.50;99.90;;;;;;5054930;28;20041;-49
2022/05/21 08:36:26;;;;;;;14.80;2.85;;;17.90;99.90;;;;;;5053609;28;20046;-49
2022/05/21 08:38:54;;;;;;;12.95;2.20;;;18.30;99.90;;;;;;5055286;28;20036;-49
2022/05/21 08:41:20;;;;;;;15.65;2.67;;;18.40;99.90;;;;;;5054910;28;20040;-49
2022/05/21 08:44:06;;;;;;;9.07;2.10;;;18.00;99.90;;;;;;5054103;28;20033;-49
2022/05/21 08:47:03;;;;;;;15.15;3.03;;;17.50;99.90;;;;;;5053290;28;20072;-51
2022/05/21 08:49:52;;;;;;;11.70;2.13;;;17.30;99.90;;;;;;5055201;28;20051;-48
2022/05/21 08:52:21;;;;;;;12.07;2.92;;;17.00;99.90;;;;;;5053414;28;20076;-48
2022/05/21 08:54:49;;;;;;;10.50;2.00;;;16.70;99.90;;;;;;5054858;28;21050;-51
2022/05/21 08:57:19;;;;;;;12.57;2.17;;;17.80;99.90;;;;;;5055251;28;20412;-49
2022/05/21 09:00:04;;;;;;;9.32;2.20;;;18.10;99.90;;;;;;5054052;28;20053;-48
2022/05/21 09:02:33;;;;;;;15.98;2.80;;;18.40;99.90;;;;;;5054091;28;20037;-51
2022/05/21 09:05:02;;;;;;;14.65;2.75;;;20.10;99.90;;;;;;5053730;28;20588;-50
2022/05/21 09:07:38;;;;;;;9.60;1.90;;;19.30;99.90;;;;;;5053113;28;20078;-49
2022/05/21 09:10:29;;;;;;;16.02;2.53;;;19.90;99.90;;;;;;5054555;28;20045;-46
2022/05/21 09:13:00;;;;;;;12.95;2.10;;;19.20;99.90;;;;;;5086601;28;20045;-50
2022/05/21 09:18:14;;;;;;;9.50;2.08;;;20.30;99.90;;;;;;5054995;28;20044;-50
2022/05/21 09:21:16;;;;;;;11.23;1.77;;;18.30;99.90;;;;;;5053481;28;20048;-49
2022/05/21 09:23:47;;;;;;;11.25;2.30;;;18.00;99.90;;;;;;5050813;28;20535;-51
2022/05/21 09:26:13;;;;;;;15.40;3.10;;;19.40;99.90;;;;;;5050198;28;20090;-48
2022/05/21 09:28:39;;;;;;;13.55;2.00;;;17.50;99.90;;;;;;5052193;28;20330;-46
2022/05/21 09:31:07;;;;;;;9.60;2.10;;;17.40;99.90;;;;;;5050562;28;20465;-50
2022/05/21 09:33:42;;;;;;;10.60;1.80;;;17.90;99.90;;;;;;5051269;28;20048;-52
2022/05/21 09:36:08;;;;;;;9.68;1.73;;;18.60;99.90;;;;;;5052051;28;20040;-51
2022/05/21 09:38:52;;;;;;;12.63;2.50;;;19.90;99.90;;;;;;5051308;28;20044;-51
2022/05/21 09:41:26;;;;;;;15.35;2.30;;;17.60;99.90;;;;;;5050750;28;20667;-49
2022/05/21 09:47:16;;;;;;;10.65;2.13;;;17.90;99.90;;;;;;5033574;28;20560;-51
2022/05/21 09:49:57;;;;;;;8.85;2.00;;;17.90;99.90;;;;;;5050426;28;20040;-48
2022/05/21 09:52:24;;;;;;;8.85;1.80;;;17.80;99.90;;;;;;5050272;28;20060;-49
2022/05/21 09:54:52;;;;;;;8.82;1.52;;;19.90;99.90;;;;;;5050122;28;20107;-47
2022/05/21 09:57:39;;;;;;;9.48;1.83;;;17.80;99.90;;;;;;5050555;28;20040;-47
2022/05/21 10:00:25;;;;;;;12.90;3.20;;;18.00;99.90;;;;;;5040563;28;20045;-47
2022/05/21 10:02:54;;;;;;;13.50;2.70;;;17.70;99.90;;;;;;5034352;28;20055;-50
2022/05/21 10:05:36;;;;;;;13.30;2.05;;;17.30;99.90;;;;;;5034133;28;20052;-49
2022/05/21 10:11:03;;;;;;;11.50;2.40;;;17.30;99.90;;;;;;5032717;28;20765;-49
2022/05/21 10:13:45;;;;;;;14.35;2.45;;;17.30;99.90;;;;;;5034297;28;20037;-48
2022/05/21 10:16:23;;;;;;;11.20;2.28;;;17.20;99.90;;;;;;5033314;28;20037;-49
2022/05/21 10:19:01;;;;;;;13.18;2.42;;;17.10;99.90;;;;;;5032762;28;20124;-48
2022/05/21 10:21:55;;;;;;;11.73;2.20;;;17.10;99.90;;;;;;5032961;28;20048;-47
2022/05/21 10:24:37;;;;;;;12.43;2.40;;;17.20;99.90;;;;;;5031337;28;20141;-51
2022/05/21 10:27:19;;;;;;;12.63;2.47;;;17.30;99.90;;;;;;5032577;28;20699;-48
2022/05/21 10:29:55;;;;;;;15.35;2.20;;;17.30;99.90;;;;;;5031470;28;20041;-48
2022/05/21 10:33:06;;;;;;;10.55;2.30;;;17.20;99.90;;;;;;5040746;28;20056;-49
2022/05/21 10:35:40;;;;;;;10.40;2.10;;;17.40;99.90;;;;;;5049869;28;20631;-49
2022/05/21 10:38:47;;;;;;;13.45;2.28;;;17.80;99.90;;;;;;5048438;28;20419;-50
2022/05/21 10:41:38;;;;;;;9.98;1.77;;;17.10;99.90;;;;;;5047967;28;20711;-50
2022/05/21 10:44:39;;;;;;;13.27;1.95;;;17.30;99.90;;;;;;5047826;28;20136;-50
2022/05/21 10:47:25;;;;;;;10.97;2.27;;;17.30;99.90;;;;;;5048469;28;20063;-51
2022/05/21 10:50:27;;;;;;;9.70;2.10;;;17.70;99.90;;;;;;5048218;28;20092;-46
2022/05/21 10:53:04;;;;;;;11.23;2.42;;;17.90;99.90;;;;;;5047356;28;20063;-49
2022/05/21 10:55:42;;;;;;;10.25;2.00;;;18.00;99.90;;;;;;5048688;28;20037;-51
2022/05/21 10:58:13;;;;;;;12.07;2.60;;;18.10;99.90;;;;;;5047678;28;20558;-49
2022/05/21 11:01:04;;;;;;;11.15;2.25;;;17.80;99.90;;;;;;5050137;28;20036;-48
2022/05/21 11:03:48;;;;;;;14.27;2.22;;;17.70;99.90;;;;;;5049034;28;20727;-51
2022/05/21 11:06:55;;;;;;;10.65;1.92;;;17.20;99.90;;;;;;5047573;28;20048;-48
2022/05/21 11:09:44;;;;;;;11.15;2.13;;;17.80;99.90;;;;;;4969732;28;20396;-50
2022/05/21 11:12:21;;;;;;;8.73;2.17;;;18.00;99.90;;;;;;4969964;28;20168;-50
2022/05/21 11:15:18;;;;;;;8.32;1.80;;;19.10;99.90;;;;;;4970797;28;20719;-51
2022/05/21 11:17:55;;;;;;;11.40;1.92;;;18.10;99.90;;;;;;4971985;28;20608;-50
2022/05/21 11:20:25;;;;;;;9.32;1.55;;;18.30;99.90;;;;;;4972552;28;20477;-49
2022/05/21 11:23:04;;;;;;;11.65;1.90;;;19.50;99.90;;;;;;4973060;28;20065;-50
2022/05/21 11:25:51;;;;;;;11.55;1.85;;;18.50;99.90;;;;;;4954963;28;20330;-47
2022/05/21 11:28:35;;;;;;;10.20;1.83;;;18.50;99.90;;;;;;4968928;28;21297;-50
2022/05/21 11:39:44;;;;;;;11.25;2.53;;;19.30;99.90;;;;;;4971589;28;20045;-48
2022/05/21 11:42:17;;;;;;;11.23;2.65;;;19.40;99.90;;;;;;4971733;28;20050;-49
2022/05/21 11:44:59;;;;;;;9.57;2.17;;;18.90;99.90;;;;;;4969245;28;20065;-47
2022/05/21 11:47:33;;;;;;;12.27;2.70;;;19.10;99.90;;;;;;5011786;28;20052;-50
2022/05/21 11:50:14;;;;;;;10.48;1.80;;;18.30;99.90;;;;;;5012239;28;20045;-49
2022/05/21 11:52:40;;;;;;;15.73;2.47;;;18.00;99.90;;;;;;4999570;28;20053;-47
2022/05/21 11:55:13;;;;;;;10.43;2.05;;;18.90;99.90;;;;;;5038913;28;20052;-49
2022/05/21 11:58:01;;;;;;;9.88;2.25;;;18.90;99.90;;;;;;5051135;28;20051;-48
2022/05/21 12:00:40;;;;;;;9.93;2.13;;;17.20;99.90;;;;;;5049561;28;20045;-45
2022/05/21 12:03:06;;;;;;;12.07;2.55;;;17.40;99.90;;;;;;5047715;28;20124;-47
2022/05/21 12:05:34;;;;;;;12.20;2.33;;;17.00;99.90;;;;;;5048838;28;20049;-47
2022/05/21 12:08:36;;;;;;;9.90;2.20;;;16.90;99.90;;;;;;5047990;28;20307;-48
2022/05/21 12:11:30;;;;;;;16.17;2.80;;;16.80;99.90;;;;;;4988821;28;20058;-50
2022/05/21 12:14:19;;;;;;;12.35;2.00;;;17.00;99.90;;;;;;4987874;28;20065;-46
2022/05/21 12:16:49;;;;;;;12.07;2.00;;;17.00;99.90;;;;;;4988264;28;20038;-47
2022/05/21 12:19:52;;;;;;;9.15;2.08;;;17.00;99.90;;;;;;4991089;28;20046;-48
2022/05/21 12:22:39;;;;;;;10.73;2.22;;;16.70;99.90;;;;;;4994120;28;20753;-48
2022/05/21 12:25:09;;;;;;;12.27;1.77;;;16.70;99.90;;;;;;4993705;28;20057;-47
2022/05/21 12:27:49;;;;;;;10.18;2.30;;;16.70;99.90;;;;;;4992715;28;20045;-47
2022/05/21 12:30:24;;;;;;;9.43;1.80;;;17.00;99.90;;;;;;4994143;28;20097;-47
2022/05/21 12:32:51;;;;;;;9.45;2.08;;;16.60;99.90;;;;;;4992043;28;20090;-46
2022/05/21 12:35:44;;;;;;;9.00;1.70;;;16.60;99.90;;;;;;4991825;28;20533;-49
2022/05/21 12:38:31;;;;;;;8.52;1.55;;;16.80;99.90;;;;;;4963081;28;20268;-46
2022/05/21 12:41:36;;;;;;;8.43;1.83;;;17.10;99.90;;;;;;4952997;28;20059;-49
2022/05/21 12:44:02;;;;;;;9.13;2.00;;;15.70;99.90;;;;;;4953071;28;20055;-49
2022/05/21 12:46:32;;;;;;;9.43;1.65;;;19.40;99.90;;;;;;4962173;28;20047;-47
2022/05/21 12:49:03;;;;;;;9.15;1.83;;;18.10;99.90;;;;;;5034351;28;20478;-50
2022/05/21 12:51:37;;;;;;;7.93;1.63;;;19.30;99.90;;;;;;5035205;28;20068;-48
2022/05/21 12:54:07;;;;;;;7.85;1.45;;;18.40;99.90;;;;;;5033350;28;20047;-49
2022/05/21 12:56:40;;;;;;;6.80;1.55;;;21.40;99.90;;;;;;5034368;28;20033;-48
2022/05/21 12:59:29;;;;;;;6.72;1.40;;;19.50;99.90;;;;;;5031988;28;20045;-50
2022/05/21 13:02:10;;;;;;;6.97;1.50;;;20.40;99.90;;;;;;5032773;28;20045;-47
2022/05/21 13:04:38;;;;;;;8.90;1.50;;;19.80;99.90;;;;;;5035084;28;20087;-50
2022/05/21 13:07:16;;;;;;;7.70;1.85;;;19.90;99.90;;;;;;5032978;28;20044;-49
2022/05/21 13:09:57;;;;;;;10.27;1.40;;;20.10;99.90;;;;;;5033441;28;20080;-52
2022/05/21 13:12:24;;;;;;;8.70;1.80;;;20.10;99.90;;;;;;5032469;28;20119;-51
2022/05/21 13:14:51;;;;;;;11.55;2.00;;;19.80;99.90;;;;;;5033315;28;20164;-50
2022/05/21 13:17:28;;;;;;;10.65;2.10;;;19.60;99.90;;;;;;5032012;28;20047;-51
2022/05/21 13:20:26;;;;;;;9.30;1.90;;;19.60;99.90;;;;;;5031978;28;20052;-49
2022/05/21 13:23:19;;;;;;;11.45;2.00;;;19.10;99.90;;;;;;5033026;28;20577;-45
2022/05/21 13:25:52;;;;;;;7.13;1.92;;;19.00;99.90;;;;;;5010595;28;20050;-52
2022/05/21 13:28:21;;;;;;;7.85;1.30;;;19.30;99.90;;;;;;5009493;28;20576;-50
2022/05/21 13:30:49;;;;;;;10.93;2.33;;;20.60;99.90;;;;;;5010049;28;20046;-50